createdAt,value
2019-05-21T00:00:11.430Z,99.20
2019-05-21T00:02:39.994Z,99.20
2019-05-21T00:05:09.088Z,99.20
2019-05-21T00:07:37.766Z,99.40
2019-05-21T00:10:08.352Z,99.40
2019-05-21T00:12:36.909Z,99.40
2019-05-21T00:15:06.825Z,99.40
2019-05-21T00:17:35.373Z,99.40
2019-05-21T00:20:06.417Z,99.30
2019-05-21T00:22:35.266Z,99.40
2019-05-21T00:25:05.914Z,99.40
2019-05-21T00:27:34.461Z,99.50
2019-05-21T00:30:39.306Z,99.60
2019-05-21T00:33:44.284Z,99.70
2019-05-21T00:36:50.076Z,99.70
2019-05-21T00:39:55.147Z,99.80
2019-05-21T00:42:33.095Z,99.70
2019-05-21T00:45:01.809Z,99.60
2019-05-21T00:47:30.438Z,99.70
2019-05-21T00:49:59.017Z,99.90
2019-05-21T00:52:27.651Z,99.80
2019-05-21T00:54:56.283Z,99.90
2019-05-21T00:57:24.850Z,99.90
2019-05-21T00:59:53.470Z,99.90
2019-05-21T01:02:22.081Z,99.90
2019-05-21T01:05:00.439Z,99.90
2019-05-21T01:07:20.970Z,99.90
2019-05-21T01:09:49.510Z,99.90
2019-05-21T01:12:18.091Z,99.90
2019-05-21T01:14:46.651Z,99.90
2019-05-21T01:17:15.207Z,99.90
2019-05-21T01:19:43.951Z,99.90
2019-05-21T01:22:12.507Z,99.90
2019-05-21T01:24:41.083Z,99.90
2019-05-21T01:27:09.667Z,99.90
2019-05-21T01:29:38.230Z,99.90
2019-05-21T01:32:06.779Z,99.90
2019-05-21T01:34:35.402Z,99.90
2019-05-21T01:37:03.991Z,99.90
2019-05-21T01:39:32.495Z,99.90
2019-05-21T01:42:01.073Z,99.90
2019-05-21T01:44:29.622Z,99.90
2019-05-21T01:46:58.222Z,99.90
2019-05-21T01:49:26.786Z,99.90
2019-05-21T01:51:55.345Z,99.90
2019-05-21T01:54:23.958Z,99.90
2019-05-21T01:56:52.538Z,99.90
2019-05-21T01:59:21.247Z,99.90
2019-05-21T02:01:49.809Z,99.90
2019-05-21T02:04:18.390Z,99.90
2019-05-21T02:06:49.371Z,99.90
2019-05-21T02:09:17.984Z,99.90
2019-05-21T02:11:46.654Z,99.90
2019-05-21T02:14:15.282Z,99.90
2019-05-21T02:16:43.850Z,99.90
2019-05-21T02:19:12.411Z,99.90
2019-05-21T02:21:40.994Z,99.90
2019-05-21T02:24:09.603Z,99.90
2019-05-21T02:26:38.172Z,99.90
2019-05-21T02:29:06.719Z,99.90
2019-05-21T02:31:35.400Z,99.90
2019-05-21T02:34:04.120Z,99.90
2019-05-21T02:36:32.676Z,99.90
2019-05-21T02:39:01.296Z,99.90
2019-05-21T02:41:30.148Z,99.90
2019-05-21T02:43:58.704Z,99.90
2019-05-21T02:46:27.316Z,99.90
2019-05-21T02:48:55.901Z,99.90
2019-05-21T02:51:25.208Z,99.90
2019-05-21T02:53:53.786Z,99.90
2019-05-21T02:56:22.400Z,99.90
2019-05-21T02:58:51.021Z,99.90
2019-05-21T03:01:21.162Z,99.90
2019-05-21T03:03:50.206Z,99.90
2019-05-21T03:06:18.764Z,99.90
2019-05-21T03:08:47.336Z,99.90
2019-05-21T03:11:16.266Z,99.90
2019-05-21T03:13:44.898Z,99.90
2019-05-21T03:16:13.464Z,99.90
2019-05-21T03:18:42.036Z,99.90
2019-05-21T03:21:10.625Z,99.90
2019-05-21T03:23:39.171Z,99.90
2019-05-21T03:26:07.929Z,99.90
2019-05-21T03:28:36.493Z,99.90
2019-05-21T03:31:05.054Z,99.90
2019-05-21T03:33:33.685Z,99.90
2019-05-21T03:36:02.317Z,99.90
2019-05-21T03:38:30.894Z,99.90
2019-05-21T03:40:59.468Z,99.90
2019-05-21T03:43:28.074Z,99.90
2019-05-21T03:45:56.639Z,99.90
2019-05-21T03:48:25.223Z,99.90
2019-05-21T03:50:54.327Z,99.90
2019-05-21T03:53:22.899Z,99.90
2019-05-21T03:55:51.482Z,99.90
2019-05-21T03:58:20.070Z,99.90
2019-05-21T04:00:48.686Z,99.90
2019-05-21T04:03:17.245Z,99.90
2019-05-21T04:05:45.824Z,99.90
2019-05-21T04:08:14.385Z,99.90
2019-05-21T04:10:42.958Z,99.90
2019-05-21T04:13:11.707Z,99.90
2019-05-21T04:15:43.356Z,99.90
2019-05-21T04:18:13.550Z,99.90
2019-05-21T04:20:42.136Z,99.90
2019-05-21T04:23:10.690Z,99.90
2019-05-21T04:25:39.330Z,99.90
2019-05-21T04:28:08.083Z,99.90
2019-05-21T04:30:36.666Z,99.90
2019-05-21T04:33:05.224Z,99.90
2019-05-21T04:35:33.781Z,99.90
2019-05-21T04:38:02.599Z,99.90
2019-05-21T04:40:31.153Z,99.90
2019-05-21T04:43:02.121Z,99.90
2019-05-21T04:45:30.018Z,99.90
2019-05-21T04:47:58.581Z,99.90
2019-05-21T04:50:27.230Z,99.90
2019-05-21T04:52:56.320Z,99.90
2019-05-21T04:55:24.874Z,99.90
2019-05-21T04:57:53.418Z,99.90
2019-05-21T05:00:22.107Z,99.90
2019-05-21T05:02:50.741Z,99.90
2019-05-21T05:05:19.864Z,99.90
2019-05-21T05:07:48.826Z,99.90
2019-05-21T05:10:17.517Z,99.90
2019-05-21T05:12:46.085Z,99.60
2019-05-21T05:15:14.926Z,99.40
2019-05-21T05:17:43.505Z,99.50
2019-05-21T05:20:12.485Z,99.30
2019-05-21T05:22:41.067Z,99.50
2019-05-21T05:25:10.172Z,99.30
2019-05-21T05:27:38.726Z,99.30
2019-05-21T05:30:09.411Z,99.10
2019-05-21T05:32:37.994Z,99.20
2019-05-21T05:35:06.768Z,99.20
2019-05-21T05:37:44.292Z,99.10
2019-05-21T05:40:08.001Z,99.30
2019-05-21T05:42:36.615Z,98.90
2019-05-21T05:45:06.559Z,98.80
2019-05-21T05:47:40.239Z,98.60
2019-05-21T05:50:10.820Z,98.40
2019-05-21T05:52:59.754Z,98.10
2019-05-21T05:55:28.364Z,98.00
2019-05-21T05:57:57.031Z,98.00
2019-05-21T06:00:31.934Z,98.20
2019-05-21T06:03:00.526Z,97.70
2019-05-21T06:05:29.067Z,97.60
2019-05-21T06:08:00.162Z,97.50
2019-05-21T06:10:28.988Z,97.40
2019-05-21T06:12:57.553Z,97.20
2019-05-21T06:15:26.147Z,97.20
2019-05-21T06:17:54.726Z,97.20
2019-05-21T06:20:23.540Z,97.00
2019-05-21T06:22:52.215Z,97.10
2019-05-21T06:25:25.748Z,97.00
2019-05-21T06:27:54.434Z,96.80
2019-05-21T06:30:23.237Z,96.20
2019-05-21T06:32:51.838Z,96.00
2019-05-21T06:35:20.426Z,95.70
2019-05-21T06:37:48.982Z,95.80
2019-05-21T06:40:18.790Z,95.60
2019-05-21T06:42:47.362Z,95.30
2019-05-21T06:45:17.176Z,95.20
2019-05-21T06:47:45.813Z,95.10
2019-05-21T06:50:15.426Z,94.80
2019-05-21T06:52:43.988Z,94.20
2019-05-21T06:55:12.691Z,93.70
2019-05-21T06:57:41.272Z,93.60
2019-05-21T07:00:12.081Z,93.50
2019-05-21T07:02:40.719Z,93.40
2019-05-21T07:05:09.496Z,93.30
2019-05-21T07:07:38.069Z,93.30
2019-05-21T07:10:08.096Z,92.80
2019-05-21T07:12:36.771Z,92.20
2019-05-21T07:15:07.643Z,92.00
2019-05-21T07:17:36.598Z,91.80
2019-05-21T07:20:07.682Z,91.70
2019-05-21T07:22:39.197Z,91.50
2019-05-21T07:25:08.601Z,91.40
2019-05-21T07:27:37.185Z,91.00
2019-05-21T07:30:07.715Z,90.60
2019-05-21T07:32:39.180Z,90.30
2019-05-21T07:35:08.502Z,89.80
2019-05-21T07:37:39.076Z,90.30
2019-05-21T07:40:09.466Z,90.10
2019-05-21T07:42:38.130Z,90.60
2019-05-21T07:45:07.450Z,90.40
2019-05-21T07:47:36.026Z,90.40
2019-05-21T07:50:06.712Z,90.50
2019-05-21T07:52:35.264Z,90.80
2019-05-21T07:55:04.090Z,91.10
2019-05-21T07:57:32.682Z,91.20
2019-05-21T08:00:01.225Z,91.50
2019-05-21T08:02:29.923Z,92.00
2019-05-21T08:04:58.478Z,91.80
2019-05-21T08:07:27.043Z,91.90
2019-05-21T08:09:55.646Z,92.00
2019-05-21T08:12:38.079Z,92.40
2019-05-21T08:14:54.429Z,92.40
2019-05-21T08:17:23.086Z,92.30
2019-05-21T08:19:51.736Z,92.00
2019-05-21T08:22:20.356Z,92.30
2019-05-21T08:24:49.345Z,92.00
2019-05-21T08:27:17.966Z,91.80
2019-05-21T08:29:46.531Z,91.70
2019-05-21T08:32:15.106Z,91.20
2019-05-21T08:34:43.742Z,90.20
2019-05-21T08:37:12.371Z,89.50
2019-05-21T08:39:40.970Z,88.60
2019-05-21T08:42:09.553Z,87.90
2019-05-21T08:44:38.182Z,87.00
2019-05-21T08:47:07.743Z,86.50
2019-05-21T08:49:36.367Z,86.00
2019-05-21T08:52:05.087Z,85.30
2019-05-21T08:54:50.426Z,84.70
2019-05-21T08:57:19.178Z,83.70
2019-05-21T08:59:48.310Z,83.70
2019-05-21T09:02:17.670Z,83.40
2019-05-21T09:04:46.921Z,82.90
2019-05-21T09:07:16.009Z,82.10
2019-05-21T09:09:50.493Z,81.60
2019-05-21T09:12:15.105Z,81.30
2019-05-21T09:14:43.683Z,80.10
2019-05-21T09:17:12.265Z,79.40
2019-05-21T09:19:40.854Z,79.80
2019-05-21T09:22:09.494Z,81.70
2019-05-21T09:24:38.038Z,83.30
2019-05-21T09:27:06.721Z,84.30
2019-05-21T09:29:35.270Z,85.50
2019-05-21T09:32:03.850Z,85.70
2019-05-21T09:34:47.340Z,86.50
2019-05-21T09:37:17.094Z,87.30
2019-05-21T09:39:32.904Z,87.50
2019-05-21T09:42:01.462Z,87.90
2019-05-21T09:44:30.102Z,86.60
2019-05-21T09:46:58.761Z,85.80
2019-05-21T09:49:27.315Z,82.40
2019-05-21T09:51:55.943Z,78.90
2019-05-21T09:54:24.625Z,77.70
2019-05-21T09:56:53.189Z,75.20
2019-05-21T09:59:38.298Z,74.30
2019-05-21T10:02:11.362Z,75.10
2019-05-21T10:04:39.983Z,76.80
2019-05-21T10:07:08.636Z,78.40
2019-05-21T10:09:37.174Z,79.10
2019-05-21T10:12:06.655Z,79.70
2019-05-21T10:14:35.219Z,79.70
2019-05-21T10:17:03.846Z,80.90
2019-05-21T10:19:32.405Z,80.40
2019-05-21T10:22:01.074Z,80.40
2019-05-21T10:24:29.612Z,80.30
2019-05-21T10:26:58.350Z,80.70
2019-05-21T10:29:26.897Z,80.00
2019-05-21T10:31:55.545Z,79.70
2019-05-21T10:34:24.095Z,79.20
2019-05-21T10:36:52.872Z,79.60
2019-05-21T10:39:21.498Z,79.70
2019-05-21T10:41:50.075Z,78.10
2019-05-21T10:44:18.817Z,77.50
2019-05-21T10:46:47.499Z,77.60
2019-05-21T10:49:16.069Z,77.90
2019-05-21T10:51:44.839Z,77.40
2019-05-21T10:54:13.387Z,75.90
2019-05-21T10:56:48.014Z,76.20
2019-05-21T10:59:12.239Z,77.40
2019-05-21T11:01:54.256Z,77.40
2019-05-21T11:04:27.246Z,77.60
2019-05-21T11:06:55.875Z,76.80
2019-05-21T11:09:25.207Z,78.40
2019-05-21T11:11:53.844Z,76.80
2019-05-21T11:14:22.508Z,75.50
2019-05-21T11:16:51.077Z,74.50
2019-05-21T11:19:19.805Z,75.50
2019-05-21T11:21:48.492Z,75.30
2019-05-21T11:24:17.125Z,75.40
2019-05-21T11:26:45.690Z,75.30
2019-05-21T11:29:14.259Z,75.20
2019-05-21T11:31:55.870Z,74.60
2019-05-21T11:34:13.170Z,73.90
2019-05-21T11:36:41.730Z,74.00
2019-05-21T11:39:10.426Z,74.00
2019-05-21T11:41:39.059Z,73.40
2019-05-21T11:44:07.691Z,73.10
2019-05-21T11:46:36.252Z,72.60
2019-05-21T11:49:05.158Z,72.30
2019-05-21T11:51:33.786Z,70.90
2019-05-21T11:54:02.332Z,70.20
2019-05-21T11:56:30.910Z,68.30
2019-05-21T11:58:59.467Z,67.10
2019-05-21T12:01:28.095Z,65.40
2019-05-21T12:03:56.751Z,63.10
2019-05-21T12:06:25.324Z,63.10
2019-05-21T12:08:56.692Z,60.70
2019-05-21T12:11:24.123Z,59.20
2019-05-21T12:13:53.403Z,58.00
2019-05-21T12:16:22.045Z,56.00
2019-05-21T12:18:50.712Z,55.40
2019-05-21T12:21:19.277Z,56.10
2019-05-21T12:23:47.854Z,56.10
2019-05-21T12:26:16.438Z,57.00
2019-05-21T12:28:44.993Z,57.00
2019-05-21T12:31:13.562Z,55.30
2019-05-21T12:33:42.213Z,53.60
2019-05-21T12:36:10.853Z,51.90
2019-05-21T12:38:39.412Z,50.00
2019-05-21T12:41:07.977Z,49.60
2019-05-21T12:43:36.535Z,49.30
2019-05-21T12:46:05.250Z,49.70
2019-05-21T12:48:33.845Z,50.30
2019-05-21T12:51:02.382Z,51.30
2019-05-21T12:53:30.942Z,50.50
2019-05-21T12:55:59.537Z,48.80
2019-05-21T12:58:28.183Z,47.10
2019-05-21T13:00:56.798Z,46.70
2019-05-21T13:03:25.410Z,46.30
2019-05-21T13:05:54.072Z,48.70
2019-05-21T13:08:22.627Z,48.40
2019-05-21T13:10:51.255Z,47.90
2019-05-21T13:13:19.929Z,48.70
2019-05-21T13:15:48.483Z,48.70
2019-05-21T13:18:17.034Z,47.90
2019-05-21T13:20:45.698Z,47.80
2019-05-21T13:23:14.491Z,48.60
2019-05-21T13:25:43.110Z,47.80
2019-05-21T13:28:11.758Z,47.20
2019-05-21T13:30:40.306Z,48.30
2019-05-21T13:33:08.939Z,49.30
2019-05-21T13:35:37.579Z,49.40
2019-05-21T13:38:06.211Z,51.80
2019-05-21T13:40:35.833Z,54.80
2019-05-21T13:43:04.579Z,55.90
2019-05-21T13:45:33.198Z,56.50
2019-05-21T13:48:01.755Z,58.00
2019-05-21T13:50:30.351Z,58.70
2019-05-21T13:52:58.895Z,59.90
2019-05-21T13:55:27.518Z,60.10
2019-05-21T13:57:56.151Z,61.50
2019-05-21T14:00:41.622Z,62.50
2019-05-21T14:03:10.246Z,68.50
2019-05-21T14:05:39.641Z,73.00
2019-05-21T14:08:08.342Z,73.10
2019-05-21T14:10:37.061Z,78.50
2019-05-21T14:13:05.927Z,84.00
2019-05-21T14:15:34.621Z,87.90
2019-05-21T14:18:03.267Z,91.60
2019-05-21T14:20:31.894Z,93.90
2019-05-21T14:23:00.501Z,93.70
2019-05-21T14:25:48.404Z,92.90
2019-05-21T14:28:17.171Z,93.00
2019-05-21T14:30:45.805Z,93.10
2019-05-21T14:33:15.075Z,93.90
2019-05-21T14:35:43.686Z,93.50
2019-05-21T14:38:13.257Z,92.60
2019-05-21T14:40:41.905Z,94.40
2019-05-21T14:43:10.723Z,94.40
2019-05-21T14:45:39.277Z,92.40
2019-05-21T14:48:07.899Z,93.40
2019-05-21T14:50:36.487Z,93.40
2019-05-21T14:53:05.206Z,94.10
2019-05-21T14:55:33.742Z,93.90
2019-05-21T14:58:02.375Z,95.20
2019-05-21T15:00:33.338Z,95.50
2019-05-21T15:03:01.844Z,94.30
2019-05-21T15:05:30.599Z,93.60
2019-05-21T15:07:59.165Z,94.10
2019-05-21T15:10:27.750Z,92.30
2019-05-21T15:12:56.570Z,94.70
2019-05-21T15:15:25.244Z,94.60
2019-05-21T15:17:53.834Z,94.40
2019-05-21T15:20:41.192Z,94.40
2019-05-21T15:23:09.819Z,95.60
2019-05-21T15:25:38.369Z,93.50
2019-05-21T15:28:06.971Z,94.20
2019-05-21T15:30:35.662Z,95.10
2019-05-21T15:33:04.335Z,95.60
2019-05-21T15:35:33.984Z,95.50
2019-05-21T15:38:02.538Z,96.50
2019-05-21T15:40:31.272Z,97.30
2019-05-21T15:42:59.877Z,97.10
2019-05-21T15:45:28.458Z,96.00
2019-05-21T15:47:57.066Z,95.80
2019-05-21T15:50:25.676Z,96.60
2019-05-21T15:52:54.445Z,96.70
2019-05-21T15:55:23.003Z,97.30
2019-05-21T15:57:51.576Z,97.40
2019-05-21T16:00:20.871Z,97.70
2019-05-21T16:02:49.444Z,97.30
2019-05-21T16:05:18.220Z,97.50
2019-05-21T16:07:46.767Z,97.80
2019-05-21T16:10:15.579Z,98.30
2019-05-21T16:12:44.253Z,98.50
2019-05-21T16:15:13.587Z,98.20
2019-05-21T16:17:42.227Z,98.20
2019-05-21T16:20:11.776Z,98.40
2019-05-21T16:22:40.493Z,98.50
2019-05-21T16:25:09.817Z,98.30
2019-05-21T16:27:38.596Z,98.80
2019-05-21T16:30:11.603Z,98.60
2019-05-21T16:32:40.331Z,98.20
2019-05-21T16:35:09.894Z,98.40
2019-05-21T16:37:38.526Z,98.40
2019-05-21T16:40:08.336Z,98.90
2019-05-21T16:42:37.118Z,98.90
2019-05-21T16:45:07.311Z,99.00
2019-05-21T16:47:45.505Z,98.90
2019-05-21T16:50:09.898Z,98.90
2019-05-21T16:52:39.157Z,98.70
2019-05-21T16:55:08.431Z,98.50
2019-05-21T16:57:37.456Z,97.60
2019-05-21T17:00:07.555Z,96.40
2019-05-21T17:02:36.258Z,96.10
2019-05-21T17:05:07.019Z,96.70
2019-05-21T17:07:35.575Z,96.20
2019-05-21T17:10:06.468Z,94.20
2019-05-21T17:12:35.196Z,90.40
2019-05-21T17:15:06.555Z,85.30
2019-05-21T17:17:35.135Z,79.90
2019-05-21T17:20:06.354Z,81.60
2019-05-21T17:22:34.949Z,86.90
2019-05-21T17:25:05.070Z,88.00
2019-05-21T17:27:33.764Z,90.50
2019-05-21T17:30:02.406Z,90.70
2019-05-21T17:32:31.134Z,92.00
2019-05-21T17:34:59.753Z,93.50
2019-05-21T17:37:28.336Z,94.50
2019-05-21T17:39:57.011Z,94.90
2019-05-21T17:42:25.960Z,95.40
2019-05-21T17:44:54.585Z,96.00
2019-05-21T17:47:23.295Z,96.40
2019-05-21T17:49:52.086Z,97.20
2019-05-21T17:52:20.812Z,97.80
2019-05-21T17:54:56.914Z,97.90
2019-05-21T17:57:19.667Z,97.60
2019-05-21T17:59:48.278Z,97.40
2019-05-21T18:02:18.027Z,97.90
2019-05-21T18:04:48.210Z,98.90
2019-05-21T18:07:21.215Z,99.40
2019-05-21T18:09:49.887Z,99.90
2019-05-21T18:12:31.060Z,99.90
2019-05-21T18:14:49.652Z,99.90
2019-05-21T18:17:20.038Z,99.90
2019-05-21T18:19:50.199Z,99.90
2019-05-21T18:22:21.207Z,99.90
2019-05-21T18:24:49.863Z,99.90
2019-05-21T18:27:18.682Z,99.90
2019-05-21T18:29:47.331Z,99.90
2019-05-21T18:32:16.079Z,99.90
2019-05-21T18:34:44.747Z,99.90
2019-05-21T18:37:13.855Z,99.90
2019-05-21T18:39:42.383Z,99.90
2019-05-21T18:42:21.660Z,99.90
2019-05-21T18:44:41.369Z,99.90
2019-05-21T18:47:09.993Z,99.90
2019-05-21T18:49:38.836Z,99.90
2019-05-21T18:52:07.675Z,99.90
2019-05-21T18:54:36.636Z,99.90
2019-05-21T18:57:05.441Z,99.90
2019-05-21T18:59:34.157Z,99.90
2019-05-21T19:02:02.960Z,99.90
2019-05-21T19:04:32.184Z,99.90
2019-05-21T19:07:01.182Z,99.90
2019-05-21T19:09:29.938Z,99.90
2019-05-21T19:11:58.652Z,99.90
2019-05-21T19:14:30.278Z,99.90
2019-05-21T19:16:58.878Z,99.90
2019-05-21T19:19:27.534Z,99.90
2019-05-21T19:21:56.164Z,99.90
2019-05-21T19:24:24.781Z,99.90
2019-05-21T19:26:53.326Z,99.90
2019-05-21T19:29:21.991Z,99.90
2019-05-21T19:31:50.588Z,99.90
2019-05-21T19:34:19.181Z,99.90
2019-05-21T19:36:47.819Z,99.90
2019-05-21T19:39:17.107Z,99.90
2019-05-21T19:41:46.404Z,99.90
2019-05-21T19:44:15.026Z,99.90
2019-05-21T19:46:44.048Z,99.90
2019-05-21T19:49:12.722Z,99.90
2019-05-21T19:51:41.281Z,99.90
2019-05-21T19:54:09.943Z,99.90
2019-05-21T19:56:38.582Z,99.90
2019-05-21T19:59:07.241Z,99.90
2019-05-21T20:01:36.531Z,99.90
2019-05-21T20:04:06.816Z,99.90
2019-05-21T20:06:36.372Z,99.90
2019-05-21T20:09:08.436Z,99.90
2019-05-21T20:11:38.442Z,99.90
2019-05-21T20:14:07.070Z,99.90
2019-05-21T20:16:37.162Z,99.90
2019-05-21T20:19:07.052Z,99.90
2019-05-21T20:21:36.448Z,99.90
2019-05-21T20:24:07.011Z,99.90
2019-05-21T20:26:36.488Z,99.90
2019-05-21T20:29:09.369Z,99.90
2019-05-21T20:31:40.090Z,99.90
2019-05-21T20:34:11.814Z,99.90
2019-05-21T20:36:41.023Z,99.90
2019-05-21T20:39:11.327Z,99.90
2019-05-21T20:41:40.733Z,99.90
2019-05-21T20:44:10.935Z,99.90
2019-05-21T20:46:40.716Z,99.90
2019-05-21T20:49:10.245Z,99.90
2019-05-21T20:51:40.353Z,99.90
2019-05-21T20:54:11.269Z,99.90
2019-05-21T20:56:40.187Z,99.90
2019-05-21T20:59:09.111Z,99.90
2019-05-21T21:01:38.326Z,99.90
2019-05-21T21:04:06.881Z,99.90
2019-05-21T21:06:36.381Z,99.90
2019-05-21T21:09:08.900Z,99.90
2019-05-21T21:11:38.235Z,99.90
2019-05-21T21:14:17.442Z,99.90
2019-05-21T21:16:39.014Z,99.90
2019-05-21T21:19:07.954Z,99.90
2019-05-21T21:21:37.740Z,99.90
2019-05-21T21:24:07.069Z,99.90
2019-05-21T21:26:35.721Z,99.90
2019-05-21T21:29:04.407Z,99.90
2019-05-21T21:31:33.062Z,99.90
2019-05-21T21:34:01.711Z,99.90
2019-05-21T21:36:30.808Z,99.90
2019-05-21T21:39:01.537Z,99.90
2019-05-21T21:41:30.190Z,99.90
2019-05-21T21:43:58.813Z,99.90
2019-05-21T21:46:28.053Z,99.90
2019-05-21T21:48:57.702Z,99.90
2019-05-21T21:51:26.430Z,99.90
2019-05-21T21:53:55.642Z,99.90
2019-05-21T21:56:24.347Z,99.90
2019-05-21T21:58:52.872Z,99.90
2019-05-21T22:01:32.092Z,99.90
2019-05-21T22:04:03.774Z,99.90
2019-05-21T22:06:34.147Z,99.90
2019-05-21T22:09:05.123Z,99.90
2019-05-21T22:11:35.197Z,99.90
2019-05-21T22:14:04.646Z,99.90
2019-05-21T22:16:33.351Z,99.90
2019-05-21T22:19:02.011Z,99.90
2019-05-21T22:21:32.083Z,99.90
2019-05-21T22:24:00.742Z,99.90
2019-05-21T22:26:30.116Z,99.90
2019-05-21T22:29:00.400Z,99.90
2019-05-21T22:31:29.027Z,99.90
2019-05-21T22:33:58.231Z,99.90
2019-05-21T22:36:27.599Z,99.90
2019-05-21T22:38:56.283Z,99.90
2019-05-21T22:41:24.962Z,99.90
2019-05-21T22:43:53.691Z,99.90
2019-05-21T22:46:22.662Z,99.90
2019-05-21T22:48:51.347Z,99.90
2019-05-21T22:51:19.899Z,99.90
2019-05-21T22:53:48.479Z,99.90
2019-05-21T22:56:18.758Z,99.90
2019-05-21T22:58:47.331Z,99.90
2019-05-21T23:01:16.645Z,99.90
2019-05-21T23:03:45.275Z,99.90
2019-05-21T23:06:13.840Z,99.90
2019-05-21T23:08:42.719Z,99.90
2019-05-21T23:11:11.278Z,99.90
2019-05-21T23:13:39.847Z,99.90
2019-05-21T23:16:08.990Z,99.90
2019-05-21T23:18:38.405Z,99.90
2019-05-21T23:21:08.603Z,99.90
2019-05-21T23:23:37.918Z,99.90
2019-05-21T23:26:09.014Z,99.90
2019-05-21T23:28:37.580Z,99.90
2019-05-21T23:31:06.223Z,99.90
2019-05-21T23:33:36.539Z,99.90
2019-05-21T23:36:05.940Z,99.90
2019-05-21T23:38:37.035Z,99.90
2019-05-21T23:41:06.014Z,99.90
2019-05-21T23:43:35.123Z,99.90
2019-05-21T23:46:06.095Z,99.90
2019-05-21T23:48:35.627Z,99.90
2019-05-21T23:51:04.296Z,99.90
2019-05-21T23:53:33.602Z,99.90
2019-05-21T23:56:05.366Z,99.90
2019-05-21T23:58:33.912Z,99.90
